sensor_id;sensor_type;location;lat;lon;timestamp;pressure;altitude;pressure_sealevel;temperature;humidity
36600;BME280;35385;55.668;37.508;2023-12-22T00:00:13;97095.34;;;0.36;100.00
36600;BME280;35385;55.668;37.508;2023-12-22T00:01:13;97098.69;;;0.38;100.00
36600;BME280;35385;55.668;37.508;2023-12-22T00:02:17;97092.59;;;0.38;100.00
36600;BME280;35385;55.668;37.508;2023-12-22T00:03:17;97094.63;;;0.34;100.00
36600;BME280;35385;55.668;37.508;2023-12-22T00:04:17;97084.25;;;0.32;100.00
36600;BME280;35385;55.668;37.508;2023-12-22T00:05:18;97083.41;;;0.32;100.00
36600;BME280;35385;55.668;37.508;2023-12-22T00:06:18;97077.47;;;0.30;100.00
36600;BME280;35385;55.668;37.508;2023-12-22T00:07:19;97082.16;;;0.26;100.00
36600;BME280;35385;55.668;37.508;2023-12-22T00:08:20;97075.94;;;0.27;100.00
36600;BME280;35385;55.668;37.508;2023-12-22T00:09:20;97079.53;;;0.26;100.00
36600;BME280;35385;55.668;37.508;2023-12-22T00:10:21;97078.69;;;0.26;100.00
36600;BME280;35385;55.668;37.508;2023-12-22T00:11:22;97074.50;;;0.23;100.00
36600;BME280;35385;55.668;37.508;2023-12-22T00:12:22;97080.34;;;0.27;100.00
36600;BME280;35385;55.668;37.508;2023-12-22T00:13:22;97082.28;;;0.25;100.00
36600;BME280;35385;55.668;37.508;2023-12-22T00:14:23;97085.97;;;0.22;100.00
36600;BME280;35385;55.668;37.508;2023-12-22T00:15:23;97076.31;;;0.23;100.00
36600;BME280;35385;55.668;37.508;2023-12-22T00:16:23;97071.19;;;0.21;100.00
36600;BME280;35385;55.668;37.508;2023-12-22T00:17:24;97078.22;;;0.21;100.00
36600;BME280;35385;55.668;37.508;2023-12-22T00:18:24;97090.75;;;0.17;100.00
36600;BME280;35385;55.668;37.508;2023-12-22T00:19:25;97068.09;;;0.16;100.00
36600;BME280;35385;55.668;37.508;2023-12-22T00:20:25;97078.69;;;0.15;100.00
36600;BME280;35385;55.668;37.508;2023-12-22T00:21:25;97076.91;;;0.15;100.00
36600;BME280;35385;55.668;37.508;2023-12-22T00:22:27;97076.06;;;0.15;100.00
36600;BME280;35385;55.668;37.508;2023-12-22T00:23:28;97069.31;;;0.12;100.00
36600;BME280;35385;55.668;37.508;2023-12-22T00:24:28;97085.91;;;0.13;100.00
36600;BME280;35385;55.668;37.508;2023-12-22T00:25:29;97065.97;;;0.10;100.00
36600;BME280;35385;55.668;37.508;2023-12-22T00:26:29;97073.59;;;0.13;100.00
36600;BME280;35385;55.668;37.508;2023-12-22T00:27:30;97074.56;;;0.12;100.00
36600;BME280;35385;55.668;37.508;2023-12-22T00:28:30;97077.19;;;0.12;100.00
36600;BME280;35385;55.668;37.508;2023-12-22T00:29:33;97072.91;;;0.11;100.00
36600;BME280;35385;55.668;37.508;2023-12-22T00:30:36;97083.50;;;0.10;100.00
36600;BME280;35385;55.668;37.508;2023-12-22T00:31:36;97070.50;;;0.08;100.00
36600;BME280;35385;55.668;37.508;2023-12-22T00:32:37;97066.09;;;0.09;100.00
36600;BME280;35385;55.668;37.508;2023-12-22T00:33:37;97068.72;;;0.09;100.00
36600;BME280;35385;55.668;37.508;2023-12-22T00:34:38;97051.31;;;0.08;100.00
36600;BME280;35385;55.668;37.508;2023-12-22T00:35:38;97056.19;;;0.12;100.00
36600;BME280;35385;55.668;37.508;2023-12-22T00:36:38;97053.56;;;0.12;100.00
36600;BME280;35385;55.668;37.508;2023-12-22T00:37:39;97050.66;;;0.15;100.00
36600;BME280;35385;55.668;37.508;2023-12-22T00:38:39;97053.28;;;0.15;100.00
36600;BME280;35385;55.668;37.508;2023-12-22T00:39:40;97052.59;;;0.13;100.00
36600;BME280;35385;55.668;37.508;2023-12-22T00:40:40;97058.81;;;0.12;100.00
36600;BME280;35385;55.668;37.508;2023-12-22T00:41:40;97054.28;;;0.14;100.00
36600;BME280;35385;55.668;37.508;2023-12-22T00:42:41;97055.22;;;0.13;100.00
36600;BME280;35385;55.668;37.508;2023-12-22T00:43:41;97047.47;;;0.12;100.00
36600;BME280;35385;55.668;37.508;2023-12-22T00:44:41;97057.28;;;0.10;100.00
36600;BME280;35385;55.668;37.508;2023-12-22T00:45:42;97053.09;;;0.07;100.00
36600;BME280;35385;55.668;37.508;2023-12-22T00:46:42;97042.59;;;0.07;100.00
36600;BME280;35385;55.668;37.508;2023-12-22T00:47:43;97045.09;;;0.09;100.00
36600;BME280;35385;55.668;37.508;2023-12-22T00:48:43;97053.09;;;0.07;100.00
36600;BME280;35385;55.668;37.508;2023-12-22T00:49:43;97053.94;;;0.08;100.00
36600;BME280;35385;55.668;37.508;2023-12-22T00:50:44;97053.94;;;0.08;100.00
36600;BME280;35385;55.668;37.508;2023-12-22T00:51:44;97052.25;;;0.07;100.00
36600;BME280;35385;55.668;37.508;2023-12-22T00:52:45;97051.44;;;0.06;100.00
36600;BME280;35385;55.668;37.508;2023-12-22T00:53:45;97056.69;;;0.06;100.00
36600;BME280;35385;55.668;37.508;2023-12-22T00:54:45;97044.50;;;0.05;100.00
36600;BME280;35385;55.668;37.508;2023-12-22T00:55:46;97042.72;;;0.06;100.00
36600;BME280;35385;55.668;37.508;2023-12-22T00:56:46;97040.94;;;0.06;100.00
36600;BME280;35385;55.668;37.508;2023-12-22T00:57:47;97041.16;;;0.03;100.00
36600;BME280;35385;55.668;37.508;2023-12-22T00:58:47;97037.59;;;0.04;100.00
36600;BME280;35385;55.668;37.508;2023-12-22T00:59:47;97039.50;;;0.02;100.00
36600;BME280;35385;55.668;37.508;2023-12-22T01:00:48;97052.63;;;0.02;100.00
36600;BME280;35385;55.668;37.508;2023-12-22T01:01:48;97054.69;;;-0.02;100.00
36600;BME280;35385;55.668;37.508;2023-12-22T01:02:49;97060.78;;;-0.01;100.00
36600;BME280;35385;55.668;37.508;2023-12-22T01:03:49;97053.72;;;-0.01;100.00
36600;BME280;35385;55.668;37.508;2023-12-22T01:04:49;97051.09;;;-0.01;100.00
36600;BME280;35385;55.668;37.508;2023-12-22T01:05:50;97055.25;;;0.02;100.00
36600;BME280;35385;55.668;37.508;2023-12-22T01:06:50;97052.75;;;0.00;100.00
36600;BME280;35385;55.668;37.508;2023-12-22T01:07:51;97062.44;;;0.00;100.00
36600;BME280;35385;55.668;37.508;2023-12-22T01:08:52;97047.38;;;0.02;100.00
36600;BME280;35385;55.668;37.508;2023-12-22T01:09:52;97042.13;;;0.02;100.00
36600;BME280;35385;55.668;37.508;2023-12-22T01:10:53;97043.66;;;0.05;100.00
36600;BME280;35385;55.668;37.508;2023-12-22T01:11:54;97051.19;;;0.09;100.00
36600;BME280;35385;55.668;37.508;2023-12-22T01:12:54;97052.84;;;0.10;100.00
36600;BME280;35385;55.668;37.508;2023-12-22T01:13:55;97045.94;;;0.09;100.00
36600;BME280;35385;55.668;37.508;2023-12-22T01:14:56;97051.19;;;0.09;100.00
36600;BME280;35385;55.668;37.508;2023-12-22T01:15:56;97050.34;;;0.09;100.00
36600;BME280;35385;55.668;37.508;2023-12-22T01:16:57;97043.44;;;0.08;100.00
36600;BME280;35385;55.668;37.508;2023-12-22T01:17:59;97051.19;;;0.09;100.00
36600;BME280;35385;55.668;37.508;2023-12-22T01:18:59;97051.19;;;0.09;100.00
36600;BME280;35385;55.668;37.508;2023-12-22T01:20:00;97044.03;;;0.11;100.00
36600;BME280;35385;55.668;37.508;2023-12-22T01:21:00;97049.03;;;0.14;100.00
36600;BME280;35385;55.668;37.508;2023-12-22T01:22:01;97051.25;;;0.19;100.00
36600;BME280;35385;55.668;37.508;2023-12-22T01:23:01;97048.03;;;0.26;100.00
36600;BME280;35385;55.668;37.508;2023-12-22T01:24:02;97051.91;;;0.32;100.00
36600;BME280;35385;55.668;37.508;2023-12-22T01:25:02;97045.59;;;0.34;100.00
36600;BME280;35385;55.668;37.508;2023-12-22T01:26:03;97049.16;;;0.33;100.00
36600;BME280;35385;55.668;37.508;2023-12-22T01:27:03;97050.94;;;0.33;100.00
36600;BME280;35385;55.668;37.508;2023-12-22T01:28:04;97041.28;;;0.33;100.00
36600;BME280;35385;55.668;37.508;2023-12-22T01:29:04;97046.66;;;0.32;100.00
36600;BME280;35385;55.668;37.508;2023-12-22T01:30:05;97037.00;;;0.32;100.00
36600;BME280;35385;55.668;37.508;2023-12-22T01:31:06;97043.66;;;0.37;100.00
36600;BME280;35385;55.668;37.508;2023-12-22T01:32:06;97039.00;;;0.40;100.00
36600;BME280;35385;55.668;37.508;2023-12-22T01:33:06;97037.91;;;0.43;100.00
36600;BME280;35385;55.668;37.508;2023-12-22T01:34:07;97041.50;;;0.42;100.00
36600;BME280;35385;55.668;37.508;2023-12-22T01:35:07;97046.22;;;0.48;100.00
36600;BME280;35385;55.668;37.508;2023-12-22T01:36:10;97040.38;;;0.44;100.00
36600;BME280;35385;55.668;37.508;2023-12-22T01:37:10;97034.31;;;0.44;100.00
36600;BME280;35385;55.668;37.508;2023-12-22T01:38:11;97046.75;;;0.42;100.00
36600;BME280;35385;55.668;37.508;2023-12-22T01:39:11;97040.78;;;0.40;100.00
36600;BME280;35385;55.668;37.508;2023-12-22T01:40:11;97040.53;;;0.43;100.00
36600;BME280;35385;55.668;37.508;2023-12-22T01:41:12;97036.94;;;0.44;100.00
36600;BME280;35385;55.668;37.508;2023-12-22T01:42:12;97038.34;;;0.48;100.00
36600;BME280;35385;55.668;37.508;2023-12-22T01:43:13;97040.72;;;0.51;100.00
36600;BME280;35385;55.668;37.508;2023-12-22T01:44:14;97035.47;;;0.51;100.00
36600;BME280;35385;55.668;37.508;2023-12-22T01:45:15;97034.41;;;0.53;100.00
36600;BME280;35385;55.668;37.508;2023-12-22T01:46:15;97036.19;;;0.53;100.00
36600;BME280;35385;55.668;37.508;2023-12-22T01:47:16;97035.47;;;0.51;100.00
36600;BME280;35385;55.668;37.508;2023-12-22T01:48:17;97033.81;;;0.50;100.00
36600;BME280;35385;55.668;37.508;2023-12-22T01:49:17;97040.47;;;0.54;100.00
36600;BME280;35385;55.668;37.508;2023-12-22T01:50:18;97023.56;;;0.47;100.00
36600;BME280;35385;55.668;37.508;2023-12-22T01:51:18;97035.28;;;0.43;100.00
36600;BME280;35385;55.668;37.508;2023-12-22T01:52:19;97027.41;;;0.43;100.00
36600;BME280;35385;55.668;37.508;2023-12-22T01:53:20;97025.47;;;0.45;100.00
36600;BME280;35385;55.668;37.508;2023-12-22T01:54:21;97029.50;;;0.49;100.00
36600;BME280;35385;55.668;37.508;2023-12-22T01:55:21;97036.81;;;0.45;100.00
36600;BME280;35385;55.668;37.508;2023-12-22T01:56:21;97028.25;;;0.43;100.00
36600;BME280;35385;55.668;37.508;2023-12-22T01:57:22;97027.41;;;0.43;100.00
36600;BME280;35385;55.668;37.508;2023-12-22T01:58:23;97027.41;;;0.43;100.00
36600;BME280;35385;55.668;37.508;2023-12-22T01:59:23;97030.72;;;0.45;100.00
36600;BME280;35385;55.668;37.508;2023-12-22T02:00:25;97035.28;;;0.43;100.00
36600;BME280;35385;55.668;37.508;2023-12-22T02:01:25;97029.34;;;0.41;100.00
36600;BME280;35385;55.668;37.508;2023-12-22T02:02:26;97033.88;;;0.39;100.00
36600;BME280;35385;55.668;37.508;2023-12-22T02:03:27;97027.06;;;0.36;100.00
36600;BME280;35385;55.668;37.508;2023-12-22T02:04:27;97032.09;;;0.39;100.00
36600;BME280;35385;55.668;37.508;2023-12-22T02:05:28;97031.25;;;0.39;100.00
36600;BME280;35385;55.668;37.508;2023-12-22T02:06:30;97018.81;;;0.41;100.00
36600;BME280;35385;55.668;37.508;2023-12-22T02:07:30;97021.34;;;0.42;100.00
36600;BME280;35385;55.668;37.508;2023-12-22T02:08:31;97023.38;;;0.39;100.00
36600;BME280;35385;55.668;37.508;2023-12-22T02:09:33;97012.63;;;0.42;100.00
36600;BME280;35385;55.668;37.508;2023-12-22T02:10:33;97015.38;;;0.40;100.00
36600;BME280;35385;55.668;37.508;2023-12-22T02:11:34;97012.78;;;0.50;100.00
36600;BME280;35385;55.668;37.508;2023-12-22T02:12:34;97013.28;;;0.44;100.00
36600;BME280;35385;55.668;37.508;2023-12-22T02:13:35;97017.59;;;0.45;100.00
36600;BME280;35385;55.668;37.508;2023-12-22T02:14:35;97011.38;;;0.46;100.00
36600;BME280;35385;55.668;37.508;2023-12-22T02:15:36;97018.69;;;0.42;100.00
36600;BME280;35385;55.668;37.508;2023-12-22T02:16:45;97010.00;;;0.42;100.00
36600;BME280;35385;55.668;37.508;2023-12-22T02:20:16;97002.03;;;0.53;100.00
36600;BME280;35385;55.668;37.508;2023-12-22T02:21:17;97003.38;;;0.47;100.00
36600;BME280;35385;55.668;37.508;2023-12-22T02:22:17;97006.13;;;0.46;100.00
36600;BME280;35385;55.668;37.508;2023-12-22T02:23:17;96998.91;;;0.38;100.00
36600;BME280;35385;55.668;37.508;2023-12-22T02:24:18;97002.25;;;0.40;100.00
36600;BME280;35385;55.668;37.508;2023-12-22T02:25:18;96997.69;;;0.42;100.00
36600;BME280;35385;55.668;37.508;2023-12-22T02:26:25;97000.88;;;0.46;100.00
36600;BME280;35385;55.668;37.508;2023-12-22T02:28:28;97002.28;;;0.50;100.00
36600;BME280;35385;55.668;37.508;2023-12-22T02:29:29;96997.28;;;0.47;100.00
36600;BME280;35385;55.668;37.508;2023-12-22T02:32:00;96999.09;;;0.46;100.00
36600;BME280;35385;55.668;37.508;2023-12-22T02:33:04;97002.16;;;0.51;100.00
36600;BME280;35385;55.668;37.508;2023-12-22T02:34:05;97000.03;;;0.45;100.00
36600;BME280;35385;55.668;37.508;2023-12-22T02:35:11;97002.28;;;0.50;100.00
36600;BME280;35385;55.668;37.508;2023-12-22T02:36:14;97004.47;;;0.45;100.00
36600;BME280;35385;55.668;37.508;2023-12-22T02:37:15;97002.53;;;0.47;100.00
36600;BME280;35385;55.668;37.508;2023-12-22T02:38:17;96996.59;;;0.45;100.00
36600;BME280;35385;55.668;37.508;2023-12-22T02:39:18;96999.50;;;0.42;100.00
36600;BME280;35385;55.668;37.508;2023-12-22T02:40:19;96998.38;;;0.44;100.00
36600;BME280;35385;55.668;37.508;2023-12-22T02:41:20;96991.06;;;0.48;100.00
36600;BME280;35385;55.668;37.508;2023-12-22T02:42:21;96999.50;;;0.42;100.00
36600;BME280;35385;55.668;37.508;2023-12-22T02:43:27;96996.88;;;0.42;100.00
36600;BME280;35385;55.668;37.508;2023-12-22T02:44:27;96998.72;;;0.51;100.00
36600;BME280;35385;55.668;37.508;2023-12-22T02:45:28;96997.03;;;0.50;100.00
36600;BME280;35385;55.668;37.508;2023-12-22T02:46:30;96988.31;;;0.49;100.00
36600;BME280;35385;55.668;37.508;2023-12-22T02:47:30;96989.53;;;0.45;100.00
36600;BME280;35385;55.668;37.508;2023-12-22T02:48:32;96984.16;;;0.47;100.00
36600;BME280;35385;55.668;37.508;2023-12-22T02:49:32;96988.44;;;0.48;100.00
36600;BME280;35385;55.668;37.508;2023-12-22T02:50:33;96978.47;;;0.42;100.00
36600;BME280;35385;55.668;37.508;2023-12-22T02:51:33;96986.72;;;0.37;100.00
36600;BME280;35385;55.668;37.508;2023-12-22T02:52:34;96980.66;;;0.37;100.00
36600;BME280;35385;55.668;37.508;2023-12-22T02:53:35;96980.41;;;0.40;100.00
36600;BME280;35385;55.668;37.508;2023-12-22T02:54:35;96983.84;;;0.40;100.00
36600;BME280;35385;55.668;37.508;2023-12-22T02:55:39;96983.97;;;0.39;100.00
36600;BME280;35385;55.668;37.508;2023-12-22T02:56:40;96978.03;;;0.37;100.00
36600;BME280;35385;55.668;37.508;2023-12-22T02:57:42;96965.38;;;0.30;100.00
36600;BME280;35385;55.668;37.508;2023-12-22T02:58:43;96972.44;;;0.30;100.00
36600;BME280;35385;55.668;37.508;2023-12-22T02:59:43;96965.69;;;0.27;100.00
36600;BME280;35385;55.668;37.508;2023-12-22T03:00:44;96971.22;;;0.34;100.00
36600;BME280;35385;55.668;37.508;2023-12-22T03:01:44;96977.78;;;0.40;100.00
36600;BME280;35385;55.668;37.508;2023-12-22T03:02:44;96981.59;;;0.35;100.00
36600;BME280;35385;55.668;37.508;2023-12-22T03:03:45;96973.97;;;0.32;100.00
36600;BME280;35385;55.668;37.508;2023-12-22T03:04:45;96970.50;;;0.32;100.00
36600;BME280;35385;55.668;37.508;2023-12-22T03:05:48;96977.31;;;0.34;100.00
36600;BME280;35385;55.668;37.508;2023-12-22T03:06:49;96970.63;;;0.30;100.00
36600;BME280;35385;55.668;37.508;2023-12-22T03:07:49;96973.97;;;0.32;100.00
36600;BME280;35385;55.668;37.508;2023-12-22T03:08:49;96978.53;;;0.30;100.00
36600;BME280;35385;55.668;37.508;2023-12-22T03:09:50;96981.44;;;0.27;100.00
36600;BME280;35385;55.668;37.508;2023-12-22T03:10:50;96968.44;;;0.26;100.00
36600;BME280;35385;55.668;37.508;2023-12-22T03:11:51;96974.50;;;0.26;100.00
36600;BME280;35385;55.668;37.508;2023-12-22T03:12:56;96967.59;;;0.25;100.00
36600;BME280;35385;55.668;37.508;2023-12-22T03:13:57;96968.31;;;0.27;100.00
36600;BME280;35385;55.668;37.508;2023-12-22T03:14:57;96968.72;;;0.32;100.00
36600;BME280;35385;55.668;37.508;2023-12-22T03:15:57;96969.56;;;0.33;100.00
36600;BME280;35385;55.668;37.508;2023-12-22T03:17:01;96972.19;;;0.33;100.00
36600;BME280;35385;55.668;37.508;2023-12-22T03:18:02;96960.66;;;0.24;100.00
36600;BME280;35385;55.668;37.508;2023-12-22T03:19:02;96964.38;;;0.22;100.00
36600;BME280;35385;55.668;37.508;2023-12-22T03:20:03;96968.09;;;0.19;100.00
36600;BME280;35385;55.668;37.508;2023-12-22T03:21:04;96966.16;;;0.21;100.00
36600;BME280;35385;55.668;37.508;2023-12-22T03:22:05;96966.66;;;0.15;100.00
36600;BME280;35385;55.668;37.508;2023-12-22T03:23:05;96972.25;;;0.22;100.00
36600;BME280;35385;55.668;37.508;2023-12-22T03:24:06;96976.66;;;0.21;100.00
36600;BME280;35385;55.668;37.508;2023-12-22T03:25:06;96974.03;;;0.21;100.00
36600;BME280;35385;55.668;37.508;2023-12-22T03:26:07;96968.09;;;0.19;100.00
36600;BME280;35385;55.668;37.508;2023-12-22T03:27:07;96974.75;;;0.23;100.00
36600;BME280;35385;55.668;37.508;2023-12-22T03:28:08;96967.97;;;0.21;100.00
36600;BME280;35385;55.668;37.508;2023-12-22T03:29:08;96974.03;;;0.21;100.00
36600;BME280;35385;55.668;37.508;2023-12-22T03:30:09;96978.59;;;0.19;100.00
36600;BME280;35385;55.668;37.508;2023-12-22T03:31:09;96980.25;;;0.20;100.00
36600;BME280;35385;55.668;37.508;2023-12-22T03:32:09;96980.38;;;0.19;100.00
36600;BME280;35385;55.668;37.508;2023-12-22T03:33:10;96976.41;;;0.24;100.00
36600;BME280;35385;55.668;37.508;2023-12-22T03:34:10;96978.97;;;0.15;100.00
36600;BME280;35385;55.668;37.508;2023-12-22T03:35:11;96976.84;;;0.09;100.00
36600;BME280;35385;55.668;37.508;2023-12-22T03:36:11;96979.13;;;0.13;100.00
36600;BME280;35385;55.668;37.508;2023-12-22T03:37:12;96978.84;;;0.16;100.00
36600;BME280;35385;55.668;37.508;2023-12-22T03:38:12;96980.25;;;0.20;100.00
36600;BME280;35385;55.668;37.508;2023-12-22T03:39:13;96980.97;;;0.22;100.00
36600;BME280;35385;55.668;37.508;2023-12-22T03:40:13;96976.34;;;0.15;100.00
36600;BME280;35385;55.668;37.508;2023-12-22T03:41:13;96974.13;;;0.10;100.00
36600;BME280;35385;55.668;37.508;2023-12-22T03:42:14;96975.78;;;0.11;100.00
36600;BME280;35385;55.668;37.508;2023-12-22T03:43:14;96967.19;;;0.09;100.00
36600;BME280;35385;55.668;37.508;2023-12-22T03:44:15;96962.53;;;0.13;100.00
36600;BME280;35385;55.668;37.508;2023-12-22T03:45:15;96968.63;;;0.13;100.00
36600;BME280;35385;55.668;37.508;2023-12-22T03:46:15;96965.03;;;0.14;100.00
36600;BME280;35385;55.668;37.508;2023-12-22T03:47:16;96959.91;;;0.13;100.00
36600;BME280;35385;55.668;37.508;2023-12-22T03:48:17;96964.75;;;0.17;100.00
36600;BME280;35385;55.668;37.508;2023-12-22T03:49:18;96970.47;;;0.22;100.00
36600;BME280;35385;55.668;37.508;2023-12-22T03:50:19;96957.59;;;0.19;100.00
36600;BME280;35385;55.668;37.508;2023-12-22T03:51:20;96959.38;;;0.19;100.00
36600;BME280;35385;55.668;37.508;2023-12-22T03:52:20;96966.16;;;0.21;100.00
36600;BME280;35385;55.668;37.508;2023-12-22T03:53:20;96964.50;;;0.20;100.00
36600;BME280;35385;55.668;37.508;2023-12-22T03:54:21;96961.75;;;0.22;100.00
36600;BME280;35385;55.668;37.508;2023-12-22T03:55:21;96960.09;;;0.21;100.00
36600;BME280;35385;55.668;37.508;2023-12-22T03:56:22;96955.66;;;0.21;100.00
36600;BME280;35385;55.668;37.508;2023-12-22T03:57:22;96953.28;;;0.18;100.00
36600;BME280;35385;55.668;37.508;2023-12-22T03:58:22;96945.03;;;0.23;100.00
36600;BME280;35385;55.668;37.508;2023-12-22T03:59:23;96959.13;;;0.22;100.00
36600;BME280;35385;55.668;37.508;2023-12-22T04:00:23;96953.75;;;0.23;100.00
36600;BME280;35385;55.668;37.508;2023-12-22T04:01:24;96947.41;;;0.26;100.00
36600;BME280;35385;55.668;37.508;2023-12-22T04:02:24;96944.22;;;0.22;100.00
36600;BME280;35385;55.668;37.508;2023-12-22T04:03:24;96956.69;;;0.30;100.00
36600;BME280;35385;55.668;37.508;2023-12-22T04:04:25;96944.38;;;0.30;100.00
36600;BME280;35385;55.668;37.508;2023-12-22T04:05:28;96941.50;;;0.33;100.00
36600;BME280;35385;55.668;37.508;2023-12-22T04:06:28;96928.38;;;0.33;100.00
36600;BME280;35385;55.668;37.508;2023-12-22T04:07:29;96935.31;;;0.34;100.00
36600;BME280;35385;55.668;37.508;2023-12-22T04:08:29;96936.97;;;0.35;100.00
36600;BME280;35385;55.668;37.508;2023-12-22T04:09:30;96941.75;;;0.30;100.00
36600;BME280;35385;55.668;37.508;2023-12-22T04:10:30;96931.97;;;0.32;100.00
36600;BME280;35385;55.668;37.508;2023-12-22T04:11:31;96931.84;;;0.34;100.00
36600;BME280;35385;55.668;37.508;2023-12-22T04:12:31;96938.06;;;0.33;100.00
36600;BME280;35385;55.668;37.508;2023-12-22T04:13:32;96935.31;;;0.34;100.00
36600;BME280;35385;55.668;37.508;2023-12-22T04:14:32;96930.50;;;0.40;100.00
36600;BME280;35385;55.668;37.508;2023-12-22T04:15:32;96938.97;;;0.43;100.00
36600;BME280;35385;55.668;37.508;2023-12-22T04:16:34;96936.75;;;0.48;100.00
36600;BME280;35385;55.668;37.508;2023-12-22T04:17:36;96937.09;;;0.55;100.00
36600;BME280;35385;55.668;37.508;2023-12-22T04:18:36;96939.84;;;0.53;100.00
36600;BME280;35385;55.668;37.508;2023-12-22T04:19:37;96935.16;;;0.57;100.00
36600;BME280;35385;55.668;37.508;2023-12-22T04:20:37;96939.25;;;0.50;100.00
36600;BME280;35385;55.668;37.508;2023-12-22T04:21:38;96939.22;;;0.40;100.00
36600;BME280;35385;55.668;37.508;2023-12-22T04:22:38;96930.50;;;0.40;100.00
36600;BME280;35385;55.668;37.508;2023-12-22T04:23:39;96926.47;;;0.35;100.00
36600;BME280;35385;55.668;37.508;2023-12-22T04:24:39;96925.06;;;0.31;100.00
36600;BME280;35385;55.668;37.508;2023-12-22T04:25:40;96925.88;;;0.32;100.00
36600;BME280;35385;55.668;37.508;2023-12-22T04:26:40;96925.19;;;0.30;100.00
36600;BME280;35385;55.668;37.508;2023-12-22T04:27:40;96927.81;;;0.30;100.00
36600;BME280;35385;55.668;37.508;2023-12-22T04:28:42;96923.38;;;0.30;100.00
36600;BME280;35385;55.668;37.508;2023-12-22T04:29:42;96921.47;;;0.32;100.00
36600;BME280;35385;55.668;37.508;2023-12-22T04:30:43;96926.41;;;0.26;100.00
36600;BME280;35385;55.668;37.508;2023-12-22T04:31:43;96923.91;;;0.24;100.00
36600;BME280;35385;55.668;37.508;2023-12-22T04:32:44;96928.63;;;0.30;100.00
36600;BME280;35385;55.668;37.508;2023-12-22T04:33:45;96914.84;;;0.28;100.00
36600;BME280;35385;55.668;37.508;2023-12-22T04:34:45;96920.88;;;0.29;100.00
36600;BME280;35385;55.668;37.508;2023-12-22T04:35:46;96923.00;;;0.35;100.00
36600;BME280;35385;55.668;37.508;2023-12-22T04:36:46;96925.38;;;0.38;100.00
36600;BME280;35385;55.668;37.508;2023-12-22T04:37:47;96913.34;;;0.35;100.00
36600;BME280;35385;55.668;37.508;2023-12-22T04:38:47;96914.00;;;0.28;100.00
36600;BME280;35385;55.668;37.508;2023-12-22T04:39:48;96910.53;;;0.27;100.00
36600;BME280;35385;55.668;37.508;2023-12-22T04:40:48;96908.59;;;0.29;100.00
36600;BME280;35385;55.668;37.508;2023-12-22T04:41:48;96907.63;;;0.30;100.00
36600;BME280;35385;55.668;37.508;2023-12-22T04:42:49;96908.59;;;0.29;100.00
36600;BME280;35385;55.668;37.508;2023-12-22T04:43:50;96904.34;;;0.28;100.00
36600;BME280;35385;55.668;37.508;2023-12-22T04:44:51;96899.59;;;0.22;100.00
36600;BME280;35385;55.668;37.508;2023-12-22T04:45:51;96891.00;;;0.20;100.00
36600;BME280;35385;55.668;37.508;2023-12-22T04:46:51;96900.41;;;0.23;100.00
36600;BME280;35385;55.668;37.508;2023-12-22T04:47:52;96905.66;;;0.23;100.00
36600;BME280;35385;55.668;37.508;2023-12-22T04:48:52;96901.25;;;0.23;100.00
36600;BME280;35385;55.668;37.508;2023-12-22T04:49:53;96904.59;;;0.25;100.00
36600;BME280;35385;55.668;37.508;2023-12-22T04:50:54;96899.50;;;0.33;100.00
36600;BME280;35385;55.668;37.508;2023-12-22T04:51:54;96900.03;;;0.27;100.00
36600;BME280;35385;55.668;37.508;2023-12-22T04:52:54;96889.78;;;0.24;100.00
36600;BME280;35385;55.668;37.508;2023-12-22T04:53:55;96892.84;;;0.29;100.00
36600;BME280;35385;55.668;37.508;2023-12-22T04:54:55;96896.28;;;0.30;100.00
36600;BME280;35385;55.668;37.508;2023-12-22T04:55:56;96892.59;;;0.32;100.00
36600;BME280;35385;55.668;37.508;2023-12-22T04:56:56;96892.47;;;0.34;100.00
36600;BME280;35385;55.668;37.508;2023-12-22T04:57:57;96903.41;;;0.39;100.00
36600;BME280;35385;55.668;37.508;2023-12-22T04:58:57;96896.75;;;0.35;100.00
36600;BME280;35385;55.668;37.508;2023-12-22T04:59:58;96898.28;;;0.38;100.00
36600;BME280;35385;55.668;37.508;2023-12-22T05:00:58;96900.22;;;0.35;100.00
36600;BME280;35385;55.668;37.508;2023-12-22T05:01:59;96900.47;;;0.32;100.00
36600;BME280;35385;55.668;37.508;2023-12-22T05:02:59;96900.47;;;0.32;100.00
36600;BME280;35385;55.668;37.508;2023-12-22T05:04:00;96891.88;;;0.30;100.00
36600;BME280;35385;55.668;37.508;2023-12-22T05:05:02;96905.72;;;0.32;100.00
36600;BME280;35385;55.668;37.508;2023-12-22T05:06:03;96897.13;;;0.30;100.00
36600;BME280;35385;55.668;37.508;2023-12-22T05:07:04;96905.59;;;0.34;100.00
36600;BME280;35385;55.668;37.508;2023-12-22T05:08:07;96897.41;;;0.27;100.00
36600;BME280;35385;55.668;37.508;2023-12-22T05:09:07;96904.47;;;0.27;100.00
36600;BME280;35385;55.668;37.508;2023-12-22T05:10:07;96893.53;;;0.31;100.00
36600;BME280;35385;55.668;37.508;2023-12-22T05:11:08;96900.88;;;0.28;100.00
36600;BME280;35385;55.668;37.508;2023-12-22T05:12:09;96902.09;;;0.24;100.00
36600;BME280;35385;55.668;37.508;2023-12-22T05:13:09;96901.25;;;0.23;100.00
36600;BME280;35385;55.668;37.508;2023-12-22T05:14:09;96900.72;;;0.29;100.00
36600;BME280;35385;55.668;37.508;2023-12-22T05:15:10;96901.13;;;0.25;100.00
36600;BME280;35385;55.668;37.508;2023-12-22T05:16:11;96899.34;;;0.25;100.00
36600;BME280;35385;55.668;37.508;2023-12-22T05:17:11;96906.38;;;0.25;100.00
36600;BME280;35385;55.668;37.508;2023-12-22T05:18:12;96902.22;;;0.22;100.00
36600;BME280;35385;55.668;37.508;2023-12-22T05:19:12;96908.03;;;0.26;100.00
36600;BME280;35385;55.668;37.508;2023-12-22T05:20:12;96897.13;;;0.30;100.00
36600;BME280;35385;55.668;37.508;2023-12-22T05:21:14;96909.72;;;0.27;100.00
36600;BME280;35385;55.668;37.508;2023-12-22T05:22:15;96899.59;;;0.22;100.00